sensor_id;sensor_type;location;lat;lon;timestamp;P1;durP1;ratioP1;P2;durP2;ratioP2
17598;SDS011;8918;52.092;5.232;2023-08-12T00:00:06;12.00;;;6.93;;
17598;SDS011;8918;52.092;5.232;2023-08-12T00:02:37;13.43;;;6.57;;
17598;SDS011;8918;52.092;5.232;2023-08-12T00:05:04;10.90;;;6.60;;
17598;SDS011;8918;52.092;5.232;2023-08-12T00:07:30;10.77;;;6.40;;
17598;SDS011;8918;52.092;5.232;2023-08-12T00:09:57;10.05;;;6.60;;
17598;SDS011;8918;52.092;5.232;2023-08-12T00:12:23;8.57;;;6.18;;
17598;SDS011;8918;52.092;5.232;2023-08-12T00:14:49;9.60;;;6.65;;
17598;SDS011;8918;52.092;5.232;2023-08-12T00:17:14;8.85;;;6.45;;
17598;SDS011;8918;52.092;5.232;2023-08-12T00:19:40;14.00;;;7.45;;
17598;SDS011;8918;52.092;5.232;2023-08-12T00:22:06;10.80;;;6.47;;
17598;SDS011;8918;52.092;5.232;2023-08-12T00:24:31;12.23;;;7.18;;
17598;SDS011;8918;52.092;5.232;2023-08-12T00:26:57;9.35;;;6.72;;
17598;SDS011;8918;52.092;5.232;2023-08-12T00:29:23;11.13;;;7.68;;
17598;SDS011;8918;52.092;5.232;2023-08-12T00:31:49;12.50;;;7.90;;
17598;SDS011;8918;52.092;5.232;2023-08-12T00:34:15;12.30;;;8.18;;
17598;SDS011;8918;52.092;5.232;2023-08-12T00:36:40;12.55;;;7.82;;
17598;SDS011;8918;52.092;5.232;2023-08-12T00:39:06;12.63;;;7.93;;
17598;SDS011;8918;52.092;5.232;2023-08-12T00:41:31;11.32;;;8.30;;
17598;SDS011;8918;52.092;5.232;2023-08-12T00:43:57;14.55;;;9.07;;
17598;SDS011;8918;52.092;5.232;2023-08-12T00:46:23;11.68;;;8.52;;
17598;SDS011;8918;52.092;5.232;2023-08-12T00:48:49;11.18;;;8.65;;
17598;SDS011;8918;52.092;5.232;2023-08-12T00:51:15;11.93;;;8.00;;
17598;SDS011;8918;52.092;5.232;2023-08-12T00:53:41;14.27;;;8.85;;
17598;SDS011;8918;52.092;5.232;2023-08-12T00:56:08;13.40;;;9.30;;
17598;SDS011;8918;52.092;5.232;2023-08-12T00:58:34;15.85;;;9.50;;
17598;SDS011;8918;52.092;5.232;2023-08-12T01:01:00;17.38;;;9.15;;
17598;SDS011;8918;52.092;5.232;2023-08-12T01:03:26;15.20;;;10.20;;
17598;SDS011;8918;52.092;5.232;2023-08-12T01:05:52;12.23;;;8.43;;
17598;SDS011;8918;52.092;5.232;2023-08-12T01:08:17;13.27;;;8.57;;
17598;SDS011;8918;52.092;5.232;2023-08-12T01:10:44;14.02;;;9.48;;
17598;SDS011;8918;52.092;5.232;2023-08-12T01:13:32;15.23;;;9.50;;
17598;SDS011;8918;52.092;5.232;2023-08-12T01:16:14;14.07;;;8.85;;
17598;SDS011;8918;52.092;5.232;2023-08-12T01:18:42;12.98;;;8.95;;
17598;SDS011;8918;52.092;5.232;2023-08-12T01:21:10;13.63;;;8.55;;
17598;SDS011;8918;52.092;5.232;2023-08-12T01:23:40;16.73;;;8.95;;
17598;SDS011;8918;52.092;5.232;2023-08-12T01:26:06;12.25;;;8.02;;
17598;SDS011;8918;52.092;5.232;2023-08-12T01:28:32;11.65;;;7.45;;
17598;SDS011;8918;52.092;5.232;2023-08-12T01:31:00;11.18;;;7.72;;
17598;SDS011;8918;52.092;5.232;2023-08-12T01:33:44;11.10;;;7.60;;
17598;SDS011;8918;52.092;5.232;2023-08-12T01:36:18;11.88;;;7.97;;
17598;SDS011;8918;52.092;5.232;2023-08-12T01:38:45;12.13;;;8.23;;
17598;SDS011;8918;52.092;5.232;2023-08-12T01:41:12;11.77;;;8.68;;
17598;SDS011;8918;52.092;5.232;2023-08-12T01:43:40;10.43;;;8.30;;
17598;SDS011;8918;52.092;5.232;2023-08-12T01:46:06;12.73;;;8.00;;
17598;SDS011;8918;52.092;5.232;2023-08-12T01:48:32;12.52;;;8.80;;
17598;SDS011;8918;52.092;5.232;2023-08-12T01:50:58;13.68;;;7.88;;
17598;SDS011;8918;52.092;5.232;2023-08-12T01:53:23;12.52;;;7.97;;
17598;SDS011;8918;52.092;5.232;2023-08-12T01:55:49;11.88;;;8.20;;
17598;SDS011;8918;52.092;5.232;2023-08-12T01:58:16;12.60;;;7.88;;
17598;SDS011;8918;52.092;5.232;2023-08-12T02:00:41;10.93;;;8.43;;
17598;SDS011;8918;52.092;5.232;2023-08-12T02:03:07;12.70;;;7.60;;
17598;SDS011;8918;52.092;5.232;2023-08-12T02:05:33;11.32;;;7.72;;
17598;SDS011;8918;52.092;5.232;2023-08-12T02:07:58;12.77;;;8.52;;
17598;SDS011;8918;52.092;5.232;2023-08-12T02:10:24;14.27;;;8.75;;
17598;SDS011;8918;52.092;5.232;2023-08-12T02:12:50;13.07;;;8.10;;
17598;SDS011;8918;52.092;5.232;2023-08-12T02:15:15;16.55;;;10.10;;
17598;SDS011;8918;52.092;5.232;2023-08-12T02:17:41;14.00;;;9.35;;
17598;SDS011;8918;52.092;5.232;2023-08-12T02:20:07;14.35;;;10.32;;
17598;SDS011;8918;52.092;5.232;2023-08-12T02:22:33;14.25;;;11.50;;
17598;SDS011;8918;52.092;5.232;2023-08-12T02:24:58;16.75;;;9.93;;
17598;SDS011;8918;52.092;5.232;2023-08-12T02:27:25;19.83;;;11.55;;
17598;SDS011;8918;52.092;5.232;2023-08-12T02:29:50;15.18;;;11.57;;
17598;SDS011;8918;52.092;5.232;2023-08-12T02:32:16;18.65;;;12.15;;
17598;SDS011;8918;52.092;5.232;2023-08-12T02:34:42;17.58;;;13.20;;
17598;SDS011;8918;52.092;5.232;2023-08-12T02:37:07;20.20;;;12.43;;
17598;SDS011;8918;52.092;5.232;2023-08-12T02:39:33;18.17;;;12.00;;
17598;SDS011;8918;52.092;5.232;2023-08-12T02:41:58;17.45;;;12.35;;
17598;SDS011;8918;52.092;5.232;2023-08-12T02:44:24;16.25;;;12.35;;
17598;SDS011;8918;52.092;5.232;2023-08-12T02:46:49;18.77;;;13.70;;
17598;SDS011;8918;52.092;5.232;2023-08-12T02:49:15;19.65;;;13.70;;
17598;SDS011;8918;52.092;5.232;2023-08-12T02:51:41;18.20;;;13.13;;
17598;SDS011;8918;52.092;5.232;2023-08-12T02:54:06;21.70;;;14.55;;
17598;SDS011;8918;52.092;5.232;2023-08-12T02:56:32;21.77;;;15.70;;
17598;SDS011;8918;52.092;5.232;2023-08-12T02:58:57;22.50;;;15.57;;
17598;SDS011;8918;52.092;5.232;2023-08-12T03:01:23;20.17;;;15.07;;
17598;SDS011;8918;52.092;5.232;2023-08-12T03:03:49;20.83;;;14.95;;
17598;SDS011;8918;52.092;5.232;2023-08-12T03:06:15;20.50;;;15.02;;
17598;SDS011;8918;52.092;5.232;2023-08-12T03:08:41;22.52;;;16.83;;
17598;SDS011;8918;52.092;5.232;2023-08-12T03:11:07;26.35;;;17.08;;
17598;SDS011;8918;52.092;5.232;2023-08-12T03:13:32;24.73;;;16.80;;
17598;SDS011;8918;52.092;5.232;2023-08-12T03:15:58;28.25;;;18.45;;
17598;SDS011;8918;52.092;5.232;2023-08-12T03:18:24;21.10;;;15.75;;
17598;SDS011;8918;52.092;5.232;2023-08-12T03:20:49;27.45;;;17.55;;
17598;SDS011;8918;52.092;5.232;2023-08-12T03:23:15;27.52;;;18.02;;
17598;SDS011;8918;52.092;5.232;2023-08-12T03:25:40;24.23;;;17.30;;
17598;SDS011;8918;52.092;5.232;2023-08-12T03:28:06;24.00;;;16.55;;
17598;SDS011;8918;52.092;5.232;2023-08-12T03:30:32;23.38;;;16.42;;
17598;SDS011;8918;52.092;5.232;2023-08-12T03:32:57;23.02;;;16.23;;
17598;SDS011;8918;52.092;5.232;2023-08-12T03:35:23;22.80;;;15.73;;
17598;SDS011;8918;52.092;5.232;2023-08-12T03:37:48;19.95;;;14.43;;
17598;SDS011;8918;52.092;5.232;2023-08-12T03:40:16;25.42;;;16.65;;
17598;SDS011;8918;52.092;5.232;2023-08-12T03:42:41;24.05;;;17.65;;
17598;SDS011;8918;52.092;5.232;2023-08-12T03:45:07;23.25;;;17.17;;
17598;SDS011;8918;52.092;5.232;2023-08-12T03:47:33;20.58;;;15.27;;
17598;SDS011;8918;52.092;5.232;2023-08-12T03:49:58;22.30;;;16.60;;
17598;SDS011;8918;52.092;5.232;2023-08-12T03:52:24;20.77;;;15.10;;
17598;SDS011;8918;52.092;5.232;2023-08-12T03:54:50;19.70;;;14.88;;
17598;SDS011;8918;52.092;5.232;2023-08-12T03:57:15;21.27;;;16.13;;
17598;SDS011;8918;52.092;5.232;2023-08-12T03:59:41;20.77;;;14.43;;
17598;SDS011;8918;52.092;5.232;2023-08-12T04:02:07;21.95;;;15.23;;
17598;SDS011;8918;52.092;5.232;2023-08-12T04:04:32;19.45;;;14.32;;
17598;SDS011;8918;52.092;5.232;2023-08-12T04:07:01;21.98;;;14.93;;
17598;SDS011;8918;52.092;5.232;2023-08-12T04:09:27;21.00;;;13.75;;
17598;SDS011;8918;52.092;5.232;2023-08-12T04:11:52;19.83;;;14.23;;
17598;SDS011;8918;52.092;5.232;2023-08-12T04:14:18;17.92;;;13.35;;
17598;SDS011;8918;52.092;5.232;2023-08-12T04:16:43;24.83;;;15.10;;
17598;SDS011;8918;52.092;5.232;2023-08-12T04:19:09;19.00;;;14.65;;
17598;SDS011;8918;52.092;5.232;2023-08-12T04:21:35;20.85;;;13.90;;
17598;SDS011;8918;52.092;5.232;2023-08-12T04:24:00;18.55;;;13.77;;
17598;SDS011;8918;52.092;5.232;2023-08-12T04:26:26;16.35;;;11.98;;
17598;SDS011;8918;52.092;5.232;2023-08-12T04:28:52;18.48;;;13.45;;
17598;SDS011;8918;52.092;5.232;2023-08-12T04:31:17;20.48;;;14.25;;
17598;SDS011;8918;52.092;5.232;2023-08-12T04:33:43;22.02;;;14.50;;
17598;SDS011;8918;52.092;5.232;2023-08-12T04:36:08;23.35;;;14.80;;
17598;SDS011;8918;52.092;5.232;2023-08-12T04:38:34;21.73;;;14.20;;
17598;SDS011;8918;52.092;5.232;2023-08-12T04:41:00;20.70;;;14.05;;
17598;SDS011;8918;52.092;5.232;2023-08-12T04:43:26;21.55;;;14.27;;
17598;SDS011;8918;52.092;5.232;2023-08-12T04:45:51;20.80;;;14.93;;
17598;SDS011;8918;52.092;5.232;2023-08-12T04:48:17;19.73;;;13.73;;
17598;SDS011;8918;52.092;5.232;2023-08-12T04:50:43;18.30;;;13.50;;
17598;SDS011;8918;52.092;5.232;2023-08-12T04:53:08;20.73;;;13.88;;
17598;SDS011;8918;52.092;5.232;2023-08-12T04:55:34;19.70;;;13.73;;
17598;SDS011;8918;52.092;5.232;2023-08-12T04:58:01;21.90;;;14.32;;
17598;SDS011;8918;52.092;5.232;2023-08-12T05:00:27;19.58;;;13.82;;
17598;SDS011;8918;52.092;5.232;2023-08-12T05:02:53;20.95;;;14.18;;
17598;SDS011;8918;52.092;5.232;2023-08-12T05:05:18;19.63;;;13.88;;
17598;SDS011;8918;52.092;5.232;2023-08-12T05:07:44;23.65;;;14.75;;
17598;SDS011;8918;52.092;5.232;2023-08-12T05:10:13;24.15;;;14.57;;
17598;SDS011;8918;52.092;5.232;2023-08-12T05:12:40;19.45;;;12.75;;
17598;SDS011;8918;52.092;5.232;2023-08-12T05:15:06;18.88;;;13.02;;
17598;SDS011;8918;52.092;5.232;2023-08-12T05:17:32;24.15;;;14.60;;
17598;SDS011;8918;52.092;5.232;2023-08-12T05:19:58;18.10;;;13.82;;
17598;SDS011;8918;52.092;5.232;2023-08-12T05:22:24;20.17;;;13.93;;
17598;SDS011;8918;52.092;5.232;2023-08-12T05:24:49;16.58;;;13.13;;
17598;SDS011;8918;52.092;5.232;2023-08-12T05:27:15;22.10;;;14.52;;
17598;SDS011;8918;52.092;5.232;2023-08-12T05:29:40;18.65;;;14.18;;
17598;SDS011;8918;52.092;5.232;2023-08-12T05:32:06;21.52;;;14.63;;
17598;SDS011;8918;52.092;5.232;2023-08-12T05:34:32;21.17;;;13.60;;
17598;SDS011;8918;52.092;5.232;2023-08-12T05:36:57;20.00;;;13.57;;
17598;SDS011;8918;52.092;5.232;2023-08-12T05:39:23;20.65;;;14.27;;
17598;SDS011;8918;52.092;5.232;2023-08-12T05:41:49;18.67;;;13.20;;
17598;SDS011;8918;52.092;5.232;2023-08-12T05:44:17;20.63;;;14.80;;
17598;SDS011;8918;52.092;5.232;2023-08-12T05:46:43;24.48;;;14.50;;
17598;SDS011;8918;52.092;5.232;2023-08-12T05:49:08;19.08;;;13.43;;
17598;SDS011;8918;52.092;5.232;2023-08-12T05:51:34;20.38;;;14.52;;
17598;SDS011;8918;52.092;5.232;2023-08-12T05:54:00;19.80;;;13.75;;
17598;SDS011;8918;52.092;5.232;2023-08-12T05:56:25;21.60;;;14.25;;
17598;SDS011;8918;52.092;5.232;2023-08-12T05:58:51;18.30;;;13.75;;
17598;SDS011;8918;52.092;5.232;2023-08-12T06:01:17;15.43;;;12.82;;
17598;SDS011;8918;52.092;5.232;2023-08-12T06:03:43;20.70;;;13.38;;
17598;SDS011;8918;52.092;5.232;2023-08-12T06:06:08;18.85;;;12.98;;
17598;SDS011;8918;52.092;5.232;2023-08-12T06:08:34;18.42;;;12.32;;
17598;SDS011;8918;52.092;5.232;2023-08-12T06:10:59;16.92;;;13.40;;
17598;SDS011;8918;52.092;5.232;2023-08-12T06:13:25;16.60;;;11.82;;
17598;SDS011;8918;52.092;5.232;2023-08-12T06:15:50;18.35;;;13.32;;
17598;SDS011;8918;52.092;5.232;2023-08-12T06:18:16;18.65;;;12.63;;
17598;SDS011;8918;52.092;5.232;2023-08-12T06:20:42;18.60;;;12.98;;
17598;SDS011;8918;52.092;5.232;2023-08-12T06:23:07;16.08;;;11.93;;
17598;SDS011;8918;52.092;5.232;2023-08-12T06:25:33;18.83;;;13.25;;
17598;SDS011;8918;52.092;5.232;2023-08-12T06:28:01;18.70;;;13.50;;
17598;SDS011;8918;52.092;5.232;2023-08-12T06:30:26;15.65;;;11.98;;
17598;SDS011;8918;52.092;5.232;2023-08-12T06:32:52;17.30;;;12.70;;
17598;SDS011;8918;52.092;5.232;2023-08-12T06:35:17;12.80;;;10.48;;
17598;SDS011;8918;52.092;5.232;2023-08-12T06:37:43;14.27;;;10.57;;
17598;SDS011;8918;52.092;5.232;2023-08-12T06:40:09;12.40;;;9.68;;
17598;SDS011;8918;52.092;5.232;2023-08-12T06:42:34;15.23;;;9.75;;
17598;SDS011;8918;52.092;5.232;2023-08-12T06:45:00;12.48;;;9.10;;
17598;SDS011;8918;52.092;5.232;2023-08-12T06:47:28;10.65;;;8.40;;
17598;SDS011;8918;52.092;5.232;2023-08-12T06:49:54;12.13;;;9.00;;
17598;SDS011;8918;52.092;5.232;2023-08-12T06:52:20;11.90;;;8.70;;
17598;SDS011;8918;52.092;5.232;2023-08-12T06:54:46;10.73;;;8.93;;
17598;SDS011;8918;52.092;5.232;2023-08-12T06:57:11;10.63;;;8.80;;
17598;SDS011;8918;52.092;5.232;2023-08-12T06:59:37;9.73;;;8.73;;
17598;SDS011;8918;52.092;5.232;2023-08-12T07:02:03;10.07;;;8.40;;
17598;SDS011;8918;52.092;5.232;2023-08-12T07:04:29;8.00;;;7.00;;
17598;SDS011;8918;52.092;5.232;2023-08-12T07:06:55;10.45;;;7.78;;
17598;SDS011;8918;52.092;5.232;2023-08-12T07:09:21;7.72;;;6.82;;
17598;SDS011;8918;52.092;5.232;2023-08-12T07:11:46;8.65;;;7.20;;
17598;SDS011;8918;52.092;5.232;2023-08-12T07:14:12;9.10;;;6.55;;
17598;SDS011;8918;52.092;5.232;2023-08-12T07:16:37;8.18;;;6.78;;
17598;SDS011;8918;52.092;5.232;2023-08-12T07:19:03;8.15;;;7.10;;
17598;SDS011;8918;52.092;5.232;2023-08-12T07:21:29;6.53;;;5.93;;
17598;SDS011;8918;52.092;5.232;2023-08-12T07:23:54;7.97;;;6.40;;
17598;SDS011;8918;52.092;5.232;2023-08-12T07:26:20;8.02;;;6.93;;
17598;SDS011;8918;52.092;5.232;2023-08-12T07:28:46;7.57;;;6.80;;
17598;SDS011;8918;52.092;5.232;2023-08-12T07:31:11;9.20;;;7.13;;
17598;SDS011;8918;52.092;5.232;2023-08-12T07:33:37;7.75;;;6.80;;
17598;SDS011;8918;52.092;5.232;2023-08-12T07:36:03;7.53;;;6.63;;
17598;SDS011;8918;52.092;5.232;2023-08-12T07:38:28;7.72;;;6.95;;
17598;SDS011;8918;52.092;5.232;2023-08-12T07:40:54;7.55;;;6.30;;
17598;SDS011;8918;52.092;5.232;2023-08-12T07:43:20;6.50;;;5.60;;
17598;SDS011;8918;52.092;5.232;2023-08-12T07:45:50;6.00;;;5.32;;
17598;SDS011;8918;52.092;5.232;2023-08-12T07:48:17;6.20;;;5.60;;
17598;SDS011;8918;52.092;5.232;2023-08-12T07:50:42;6.35;;;5.70;;
17598;SDS011;8918;52.092;5.232;2023-08-12T07:53:08;6.25;;;5.60;;
17598;SDS011;8918;52.092;5.232;2023-08-12T07:55:34;6.80;;;6.10;;
17598;SDS011;8918;52.092;5.232;2023-08-12T07:58:00;6.20;;;5.60;;
17598;SDS011;8918;52.092;5.232;2023-08-12T08:00:25;6.38;;;5.47;;
17598;SDS011;8918;52.092;5.232;2023-08-12T08:02:51;5.93;;;5.30;;
17598;SDS011;8918;52.092;5.232;2023-08-12T08:05:16;5.95;;;5.30;;
17598;SDS011;8918;52.092;5.232;2023-08-12T08:07:42;6.28;;;5.28;;
17598;SDS011;8918;52.092;5.232;2023-08-12T08:10:08;5.38;;;4.88;;
17598;SDS011;8918;52.092;5.232;2023-08-12T08:12:33;5.80;;;5.30;;
17598;SDS011;8918;52.092;5.232;2023-08-12T08:14:59;4.72;;;4.32;;
17598;SDS011;8918;52.092;5.232;2023-08-12T08:17:25;5.05;;;4.47;;
17598;SDS011;8918;52.092;5.232;2023-08-12T08:19:50;4.72;;;4.22;;
17598;SDS011;8918;52.092;5.232;2023-08-12T08:22:16;5.13;;;4.65;;
17598;SDS011;8918;52.092;5.232;2023-08-12T08:24:42;4.50;;;4.03;;
17598;SDS011;8918;52.092;5.232;2023-08-12T08:27:08;4.38;;;3.88;;
17598;SDS011;8918;52.092;5.232;2023-08-12T08:29:34;3.75;;;3.45;;
17598;SDS011;8918;52.092;5.232;2023-08-12T08:31:59;4.05;;;3.35;;
17598;SDS011;8918;52.092;5.232;2023-08-12T08:34:25;3.30;;;3.00;;
17598;SDS011;8918;52.092;5.232;2023-08-12T08:36:50;3.30;;;2.97;;
17598;SDS011;8918;52.092;5.232;2023-08-12T08:39:16;2.40;;;2.20;;
17598;SDS011;8918;52.092;5.232;2023-08-12T08:41:41;2.80;;;1.83;;
17598;SDS011;8918;52.092;5.232;2023-08-12T08:44:12;3.45;;;1.90;;
17598;SDS011;8918;52.092;5.232;2023-08-12T08:46:39;3.38;;;1.95;;
17598;SDS011;8918;52.092;5.232;2023-08-12T08:49:06;4.28;;;1.92;;
17598;SDS011;8918;52.092;5.232;2023-08-12T08:51:34;4.10;;;1.75;;
17598;SDS011;8918;52.092;5.232;2023-08-12T08:54:02;6.00;;;1.98;;
17598;SDS011;8918;52.092;5.232;2023-08-12T08:56:30;3.22;;;1.77;;
17598;SDS011;8918;52.092;5.232;2023-08-12T08:58:57;4.70;;;1.90;;
17598;SDS011;8918;52.092;5.232;2023-08-12T09:01:23;3.45;;;1.80;;
17598;SDS011;8918;52.092;5.232;2023-08-12T09:03:52;3.72;;;2.20;;
17598;SDS011;8918;52.092;5.232;2023-08-12T09:06:20;3.08;;;2.13;;
17598;SDS011;8918;52.092;5.232;2023-08-12T09:08:47;4.93;;;2.00;;
17598;SDS011;8918;52.092;5.232;2023-08-12T09:11:15;3.78;;;1.98;;
17598;SDS011;8918;52.092;5.232;2023-08-12T09:13:42;4.07;;;2.22;;
17598;SDS011;8918;52.092;5.232;2023-08-12T09:16:08;3.97;;;2.25;;
17598;SDS011;8918;52.092;5.232;2023-08-12T09:18:34;3.40;;;2.10;;
17598;SDS011;8918;52.092;5.232;2023-08-12T09:21:01;4.95;;;2.08;;
17598;SDS011;8918;52.092;5.232;2023-08-12T09:23:27;5.32;;;2.10;;
17598;SDS011;8918;52.092;5.232;2023-08-12T09:25:53;6.25;;;2.22;;
17598;SDS011;8918;52.092;5.232;2023-08-12T09:28:19;4.65;;;2.05;;
17598;SDS011;8918;52.092;5.232;2023-08-12T09:30:50;5.88;;;2.25;;
17598;SDS011;8918;52.092;5.232;2023-08-12T09:33:17;4.43;;;2.15;;
17598;SDS011;8918;52.092;5.232;2023-08-12T09:35:54;4.97;;;2.08;;
17598;SDS011;8918;52.092;5.232;2023-08-12T09:38:21;5.93;;;2.47;;
17598;SDS011;8918;52.092;5.232;2023-08-12T09:40:47;5.75;;;2.53;;
17598;SDS011;8918;52.092;5.232;2023-08-12T09:43:13;4.97;;;2.40;;
17598;SDS011;8918;52.092;5.232;2023-08-12T09:45:41;6.88;;;2.35;;
17598;SDS011;8918;52.092;5.232;2023-08-12T09:48:10;6.50;;;2.63;;
17598;SDS011;8918;52.092;5.232;2023-08-12T09:50:35;5.75;;;2.33;;
17598;SDS011;8918;52.092;5.232;2023-08-12T09:53:01;4.75;;;2.20;;
17598;SDS011;8918;52.092;5.232;2023-08-12T09:55:28;5.88;;;2.35;;
17598;SDS011;8918;52.092;5.232;2023-08-12T09:57:56;4.05;;;2.45;;
17598;SDS011;8918;52.092;5.232;2023-08-12T10:00:24;7.13;;;2.50;;
17598;SDS011;8918;52.092;5.232;2023-08-12T10:02:50;4.55;;;2.20;;
17598;SDS011;8918;52.092;5.232;2023-08-12T10:05:31;5.80;;;2.13;;
17598;SDS011;8918;52.092;5.232;2023-08-12T10:07:58;6.28;;;2.50;;
17598;SDS011;8918;52.092;5.232;2023-08-12T10:10:26;4.72;;;2.28;;
17598;SDS011;8918;52.092;5.232;2023-08-12T10:12:53;4.35;;;2.13;;
17598;SDS011;8918;52.092;5.232;2023-08-12T10:15:19;6.95;;;2.33;;
17598;SDS011;8918;52.092;5.232;2023-08-12T10:17:46;7.68;;;2.30;;
17598;SDS011;8918;52.092;5.232;2023-08-12T10:20:14;5.53;;;2.30;;
17598;SDS011;8918;52.092;5.232;2023-08-12T10:22:45;6.53;;;2.67;;
17598;SDS011;8918;52.092;5.232;2023-08-12T10:25:11;7.25;;;2.67;;
17598;SDS011;8918;52.092;5.232;2023-08-12T10:27:39;6.47;;;2.83;;
17598;SDS011;8918;52.092;5.232;2023-08-12T10:30:05;5.60;;;2.65;;
17598;SDS011;8918;52.092;5.232;2023-08-12T10:32:33;5.45;;;2.45;;
17598;SDS011;8918;52.092;5.232;2023-08-12T10:34:59;5.03;;;2.50;;
17598;SDS011;8918;52.092;5.232;2023-08-12T10:37:25;5.78;;;2.20;;
17598;SDS011;8918;52.092;5.232;2023-08-12T10:39:52;5.93;;;2.83;;
17598;SDS011;8918;52.092;5.232;2023-08-12T10:45:23;4.78;;;2.65;;
17598;SDS011;8918;52.092;5.232;2023-08-12T10:50:45;5.10;;;2.60;;
17598;SDS011;8918;52.092;5.232;2023-08-12T10:53:20;4.25;;;2.40;;
17598;SDS011;8918;52.092;5.232;2023-08-12T10:56:04;6.00;;;1.98;;
17598;SDS011;8918;52.092;5.232;2023-08-12T11:01:19;3.72;;;2.03;;
17598;SDS011;8918;52.092;5.232;2023-08-12T11:03:45;5.45;;;2.15;;
17598;SDS011;8918;52.092;5.232;2023-08-12T11:06:14;5.32;;;2.10;;
17598;SDS011;8918;52.092;5.232;2023-08-12T11:08:46;4.78;;;2.10;;
17598;SDS011;8918;52.092;5.232;2023-08-12T11:11:19;6.50;;;2.38;;
17598;SDS011;8918;52.092;5.232;2023-08-12T11:13:49;5.22;;;2.22;;
17598;SDS011;8918;52.092;5.232;2023-08-12T11:16:36;5.82;;;2.22;;
17598;SDS011;8918;52.092;5.232;2023-08-12T11:19:03;4.63;;;2.08;;
17598;SDS011;8918;52.092;5.232;2023-08-12T11:21:29;5.85;;;2.05;;
17598;SDS011;8918;52.092;5.232;2023-08-12T11:23:55;7.32;;;2.30;;
17598;SDS011;8918;52.092;5.232;2023-08-12T11:26:23;4.18;;;2.30;;
17598;SDS011;8918;52.092;5.232;2023-08-12T11:28:49;5.65;;;2.42;;
17598;SDS011;8918;52.092;5.232;2023-08-12T11:31:16;5.47;;;2.30;;
17598;SDS011;8918;52.092;5.232;2023-08-12T11:33:42;5.32;;;2.05;;
17598;SDS011;8918;52.092;5.232;2023-08-12T11:36:08;5.13;;;2.28;;
17598;SDS011;8918;52.092;5.232;2023-08-12T11:38:34;7.25;;;2.83;;
17598;SDS011;8918;52.092;5.232;2023-08-12T11:41:00;7.28;;;2.17;;
17598;SDS011;8918;52.092;5.232;2023-08-12T11:43:29;4.70;;;1.90;;
17598;SDS011;8918;52.092;5.232;2023-08-12T11:45:57;7.47;;;2.15;;
17598;SDS011;8918;52.092;5.232;2023-08-12T11:48:24;6.22;;;2.25;;
17598;SDS011;8918;52.092;5.232;2023-08-12T11:50:52;4.55;;;1.90;;
17598;SDS011;8918;52.092;5.232;2023-08-12T11:53:18;8.25;;;2.08;;
17598;SDS011;8918;52.092;5.232;2023-08-12T11:55:45;5.32;;;2.13;;
17598;SDS011;8918;52.092;5.232;2023-08-12T11:58:11;4.82;;;1.50;;
17598;SDS011;8918;52.092;5.232;2023-08-12T12:00:38;5.50;;;1.80;;
17598;SDS011;8918;52.092;5.232;2023-08-12T12:03:04;7.20;;;2.13;;
17598;SDS011;8918;52.092;5.232;2023-08-12T12:05:31;5.10;;;1.67;;
17598;SDS011;8918;52.092;5.232;2023-08-12T12:07:58;6.05;;;2.17;;
17598;SDS011;8918;52.092;5.232;2023-08-12T12:10:30;5.07;;;1.73;;
17598;SDS011;8918;52.092;5.232;2023-08-12T12:12:58;4.30;;;2.05;;
17598;SDS011;8918;52.092;5.232;2023-08-12T12:15:24;5.43;;;2.05;;
17598;SDS011;8918;52.092;5.232;2023-08-12T12:17:50;4.20;;;1.77;;
17598;SDS011;8918;52.092;5.232;2023-08-12T12:20:16;7.53;;;2.33;;
17598;SDS011;8918;52.092;5.232;2023-08-12T12:22:43;4.82;;;1.70;;
17598;SDS011;8918;52.092;5.232;2023-08-12T12:25:13;7.07;;;2.22;;
17598;SDS011;8918;52.092;5.232;2023-08-12T12:27:40;9.82;;;2.67;;
17598;SDS011;8918;52.092;5.232;2023-08-12T12:30:08;5.53;;;2.17;;
17598;SDS011;8918;52.092;5.232;2023-08-12T12:32:34;9.13;;;2.30;;
17598;SDS011;8918;52.092;5.232;2023-08-12T12:35:00;5.75;;;2.20;;
17598;SDS011;8918;52.092;5.232;2023-08-12T12:37:26;8.02;;;2.55;;
17598;SDS011;8918;52.092;5.232;2023-08-12T12:39:52;7.00;;;2.30;;
17598;SDS011;8918;52.092;5.232;2023-08-12T12:42:18;8.30;;;2.28;;
17598;SDS011;8918;52.092;5.232;2023-08-12T12:44:43;5.43;;;1.90;;
17598;SDS011;8918;52.092;5.232;2023-08-12T12:47:09;6.40;;;2.20;;
17598;SDS011;8918;52.092;5.232;2023-08-12T12:49:37;5.28;;;2.30;;
17598;SDS011;8918;52.092;5.232;2023-08-12T12:52:04;6.30;;;2.45;;
17598;SDS011;8918;52.092;5.232;2023-08-12T12:54:30;5.93;;;2.22;;
17598;SDS011;8918;52.092;5.232;2023-08-12T12:56:56;4.72;;;1.92;;
17598;SDS011;8918;52.092;5.232;2023-08-12T12:59:21;6.97;;;2.30;;
17598;SDS011;8918;52.092;5.232;2023-08-12T13:01:48;6.25;;;2.20;;
17598;SDS011;8918;52.092;5.232;2023-08-12T13:04:13;6.75;;;2.20;;
17598;SDS011;8918;52.092;5.232;2023-08-12T13:06:39;6.70;;;2.35;;
17598;SDS011;8918;52.092;5.232;2023-08-12T13:09:05;6.53;;;2.40;;
17598;SDS011;8918;52.092;5.232;2023-08-12T13:11:31;8.00;;;2.65;;
17598;SDS011;8918;52.092;5.232;2023-08-12T13:13:59;8.48;;;2.45;;
17598;SDS011;8918;52.092;5.232;2023-08-12T13:16:25;5.68;;;2.20;;
17598;SDS011;8918;52.092;5.232;2023-08-12T13:18:51;6.80;;;2.17;;
17598;SDS011;8918;52.092;5.232;2023-08-12T13:21:16;6.50;;;2.20;;
17598;SDS011;8918;52.092;5.232;2023-08-12T13:23:42;5.40;;;2.13;;
17598;SDS011;8918;52.092;5.232;2023-08-12T13:26:08;6.35;;;2.17;;
17598;SDS011;8918;52.092;5.232;2023-08-12T13:28:33;6.85;;;2.20;;
17598;SDS011;8918;52.092;5.232;2023-08-12T13:30:59;5.38;;;2.15;;
17598;SDS011;8918;52.092;5.232;2023-08-12T13:33:25;8.10;;;2.30;;
17598;SDS011;8918;52.092;5.232;2023-08-12T13:35:50;6.95;;;2.10;;
17598;SDS011;8918;52.092;5.232;2023-08-12T13:38:16;6.85;;;2.28;;
17598;SDS011;8918;52.092;5.232;2023-08-12T13:40:41;7.00;;;2.38;;
17598;SDS011;8918;52.092;5.232;2023-08-12T13:43:07;6.47;;;2.25;;
17598;SDS011;8918;52.092;5.232;2023-08-12T13:45:33;6.10;;;2.30;;
17598;SDS011;8918;52.092;5.232;2023-08-12T13:47:58;9.13;;;2.38;;
17598;SDS011;8918;52.092;5.232;2023-08-12T13:50:24;6.03;;;2.08;;
17598;SDS011;8918;52.092;5.232;2023-08-12T13:52:50;8.27;;;3.97;;
17598;SDS011;8918;52.092;5.232;2023-08-12T13:55:15;7.13;;;2.10;;
17598;SDS011;8918;52.092;5.232;2023-08-12T13:57:41;6.60;;;2.00;;
17598;SDS011;8918;52.092;5.232;2023-08-12T14:00:07;6.88;;;1.90;;
17598;SDS011;8918;52.092;5.232;2023-08-12T14:02:35;6.65;;;2.30;;
17598;SDS011;8918;52.092;5.232;2023-08-12T14:05:01;6.38;;;2.03;;
17598;SDS011;8918;52.092;5.232;2023-08-12T14:07:28;7.00;;;2.05;;
17598;SDS011;8918;52.092;5.232;2023-08-12T14:09:54;4.90;;;2.40;;
17598;SDS011;8918;52.092;5.232;2023-08-12T14:12:19;8.23;;;2.50;;
17598;SDS011;8918;52.092;5.232;2023-08-12T14:14:45;5.50;;;2.15;;
17598;SDS011;8918;52.092;5.232;2023-08-12T14:17:10;7.60;;;2.50;;
17598;SDS011;8918;52.092;5.232;2023-08-12T14:19:39;8.05;;;2.75;;
17598;SDS011;8918;52.092;5.232;2023-08-12T14:22:06;7.28;;;2.88;;
17598;SDS011;8918;52.092;5.232;2023-08-12T14:24:32;8.30;;;2.90;;
17598;SDS011;8918;52.092;5.232;2023-08-12T14:26:58;8.20;;;2.63;;
17598;SDS011;8918;52.092;5.232;2023-08-12T14:29:23;7.43;;;2.78;;
17598;SDS011;8918;52.092;5.232;2023-08-12T14:31:50;7.90;;;2.80;;
17598;SDS011;8918;52.092;5.232;2023-08-12T14:34:17;8.70;;;2.75;;
17598;SDS011;8918;52.092;5.232;2023-08-12T14:36:42;8.95;;;2.72;;
17598;SDS011;8918;52.092;5.232;2023-08-12T14:39:08;8.60;;;3.10;;
17598;SDS011;8918;52.092;5.232;2023-08-12T14:41:34;9.27;;;2.83;;
17598;SDS011;8918;52.092;5.232;2023-08-12T14:43:59;9.68;;;3.25;;
17598;SDS011;8918;52.092;5.232;2023-08-12T14:46:25;8.32;;;2.80;;
17598;SDS011;8918;52.092;5.232;2023-08-12T14:48:50;9.15;;;3.00;;
17598;SDS011;8918;52.092;5.232;2023-08-12T14:51:18;8.77;;;2.80;;
17598;SDS011;8918;52.092;5.232;2023-08-12T14:53:44;10.02;;;2.50;;